KSPI/SPI METAR and TAF weather

Enter ICAO airport designator
Station Type Date Time Source
KSPI METAR 2021/02/24 17:52 UTC NOAA

KSPI 241752Z 30016KT 10SM CLR 11/03 A2995 RMK AO2 SLP145 T01060028 10106 20033 53027


Station Type Date Time Source
KSPI Decoded METAR 2021/02/24 17:52 UTC NOAA

ABRAHAM LINCOLN CAPITAL AIRPORT , IL, United States (KSPI) 39-51N 89-41W 181M
Feb 24, 2021 - 12:52 PM EST / 2021.02.24 1752 UTC
Wind: from the WNW (300 degrees) at 18 MPH (16 KT):0
Visibility: 10 mile(s):0
Sky conditions: clear
Temperature: 51.1 F (10.6 C)
Dew Point: 37.0 F (2.8 C)
Relative Humidity: 58%
Pressure (altimeter): 29.95 in. Hg (1014 hPa)
Pressure tendency: 0.08 inches (2.7 hPa) higher than three hours ago
ob: KSPI 241752Z 30016KT 10SM CLR 11/03 A2995 RMK AO2 SLP145 T01060028 10106 20033 53027
cycle: 18

Station Type Date Time Source
KSPI TAF 2021/02/24 18:22 UTC NOAA

TAF KSPI 241720Z 2418/2518 31014G21KT P6SM SCT250
FM242100 32011G21KT P6SM BKN018
FM250100 34011KT P6SM SCT250
FM251100 29006KT P6SM FEW150

Example: see airport list